Westgard — PDBQ — position and weather

sailwx.info

Track history (hours):
 
Tides and Currents Weather Stations Pressure Air Temp Water Temp Dewpoint Dewpoint Depression Visibility Wind Speed Wind Dir Waves Ship Positions

Westgard

Last reported at 2014-Jul-24 01:33 UTC. Time now 2014-Jul-24 02:20 UTC.
Position N 51°15' E 004°24'.

Length 89 m; draft 4.1 m.

Type: Ship. MMSI: 246457000.

Date/timePositionNaut miles runAvg speedWind from/ knotsBaromVisibWave heightAir tempDewpointWater temp
2014-Jul-24 01:33N 51°15' E 004°24'0 0.0
2014-Jul-24 00:33N 51°15' E 004°24'0 0.0
2014-Jul-23 23:32N 51°15' E 004°24'0 0.0
2014-Jul-23 22:32N 51°15' E 004°24'0 0.0
2014-Jul-23 21:32N 51°15' E 004°24'0 0.0
2014-Jul-23 19:32N 51°15' E 004°24'0 0.0
2014-Jul-23 18:32N 51°15' E 004°24'0 0.0
2014-Jul-23 17:32N 51°15' E 004°24'0 0.0
2014-Jul-23 16:32N 51°15' E 004°24'0 0.0
2014-Jul-23 15:32N 51°15' E 004°24'0 0.0
2014-Jul-23 14:32N 51°15' E 004°24'0 0.0
2014-Jul-23 13:32N 51°15' E 004°24'0 0.0
2014-Jul-23 12:32N 51°15' E 004°24'0 0.0
2014-Jul-23 11:32N 51°15' E 004°24'0 0.0
2014-Jul-23 10:32N 51°15' E 004°24'0 0.0
2014-Jul-23 09:32N 51°15' E 004°24'0 0.0
2014-Jul-23 08:32N 51°15' E 004°24'0 0.0
2014-Jul-23 07:32N 51°15' E 004°24'0 0.0
2014-Jul-23 06:32N 51°15' E 004°24'0 0.0
2014-Jul-23 05:32N 51°15' E 004°24'0 0.0
2014-Jul-23 04:32N 51°15' E 004°24'0 0.0
2014-Jul-23 03:32N 51°15' E 004°24'0 0.0
2014-Jul-23 02:32N 51°15' E 004°24'0 0.0
2014-Jul-23 01:33N 51°15' E 004°24'5 4.8
2014-Jul-23 00:33N 51°19' E 004°19'2 2.5
2014-Jul-22 23:34N 51°21' E 004°17'1 0.7
2014-Jul-22 22:34N 51°21' E 004°16'9 9.0
2014-Jul-22 21:34N 51°23' E 004°02'10 9.6
2014-Jul-22 20:34N 51°21' E 003°47'1212.0
2014-Jul-22 19:34N 51°25' E 003°29'1312.6
2014-Jul-22 18:33N 51°24' E 003°09'1110.7
2014-Jul-22 17:34N 51°22' E 002°52'11 9.4
2014-Jul-22 16:20N 51°20' E 002°34'1 1.0
2014-Jul-22 15:33N 51°20' E 002°33'0 0.0
2014-Jul-22 14:33N 51°20' E 002°33'0 0.0
2014-Jul-22 13:33N 51°20' E 002°33'0 0.0
2014-Jul-22 12:33N 51°20' E 002°33'0 0.0
2014-Jul-22 11:32N 51°20' E 002°33'0 0.0
2014-Jul-22 10:32N 51°20' E 002°33'0 0.0
2014-Jul-22 09:32N 51°20' E 002°33'0 0.0
2014-Jul-22 08:32N 51°20' E 002°33'5 4.9
2014-Jul-22 07:32N 51°20' E 002°25'1111.1
2014-Jul-22 06:34N 51°15' E 002°11'1111.0
2014-Jul-22 05:33N 51°09' E 001°55'1010.3
2014-Jul-22 04:33N 51°02' E 001°43'4610.3
2014-Jul-22 00:07N 50°26' E 000°59'5511.3
2014-Jul-21 19:16N 49°44' E 000°04'811.8
2014-Jul-21 18:33N 49°36' W 000°00'10 9.7
2014-Jul-21 17:33N 49°27' E 000°03'8 7.4
2014-Jul-21 16:32N 49°26' E 000°14'0 0.0
2014-Jul-21 15:32N 49°26' E 000°14'0 0.0
2014-Jul-21 14:32N 49°26' E 000°14'0 0.0
2014-Jul-21 13:32N 49°26' E 000°14'0 0.0
2014-Jul-21 12:32N 49°26' E 000°14'0 0.0
2014-Jul-21 11:32N 49°26' E 000°14'0 0.0
2014-Jul-21 10:14N 49°26' E 000°14'0 0.0
2014-Jul-21 09:32N 49°26' E 000°14'0 0.0
2014-Jul-21 08:14N 49°26' E 000°14'0 0.0
2014-Jul-21 07:26N 49°26' E 000°14'0 0.0
2014-Jul-21 06:29N 49°26' E 000°14'0 0.0
2014-Jul-21 05:32N 49°26' E 000°14'0 0.0
2014-Jul-21 04:23N 49°26' E 000°14'0 0.0
2014-Jul-21 03:32N 49°26' E 000°14'0 0.0
2014-Jul-21 02:17N 49°26' E 000°14'0 0.0
2014-Jul-21 01:32N 49°26' E 000°14'0 0.0
2014-Jul-21 00:26N 49°26' E 000°14'0 0.0
2014-Jul-20 23:20N 49°26' E 000°14'0 0.0
2014-Jul-20 22:29N 49°26' E 000°14'0 0.0
2014-Jul-20 20:10N 49°26' E 000°14'0 0.0
2014-Jul-20 19:31N 49°26' E 000°14'0 0.0
2014-Jul-20 18:10N 49°26' E 000°14'0 0.0
2014-Jul-20 17:19N 49°26' E 000°14'0 0.0
2014-Jul-20 16:22N 49°26' E 000°14'0 0.0
2014-Jul-20 15:28N 49°26' E 000°14'0 0.0
2014-Jul-20 14:28N 49°26' E 000°14'0 0.0
2014-Jul-20 13:33N 49°26' E 000°14'6 6.4
2014-Jul-20 12:33N 49°26' E 000°05'8 8.1
2014-Jul-20 11:33N 49°30' W 000°07'63 9.0
2014-Jul-20 04:33N 50°31' E 000°20'10 9.5
2014-Jul-20 03:31N 50°33' E 000°35'9 9.3
2014-Jul-20 02:33N 50°39' E 000°46'3411.2
2014-Jul-19 23:33N 51°01' E 001°27'1211.6
2014-Jul-19 22:33N 51°09' E 001°39'1110.7
2014-Jul-19 21:34N 51°18' E 001°49'9 9.2
2014-Jul-19 20:33N 51°26' E 001°56'9 8.9
2014-Jul-19 19:33N 51°32' E 002°06'9 9.0
2014-Jul-19 18:33N 51°39' E 002°15'9 9.2
2014-Jul-19 17:33N 51°46' E 002°25'1210.3
2014-Jul-19 16:21N 51°56' E 002°38'1111.3
2014-Jul-19 15:25N 52°04' E 002°49'1011.9
2014-Jul-19 14:32N 52°12' E 003°00'1212.3
2014-Jul-19 13:33N 52°22' E 003°12'1212.0
2014-Jul-19 12:32N 52°31' E 003°24'4110.3
2014-Jul-19 08:31N 53°02' E 004°09'9 9.7
2014-Jul-19 07:33N 53°08' E 004°20'1110.5
2014-Jul-19 06:33N 53°18' E 004°28'1211.7
2014-Jul-19 05:33N 53°29' E 004°34'1111.5
2014-Jul-19 04:33N 53°40' E 004°40'1111.1
2014-Jul-19 03:33N 53°51' E 004°46'1110.8
2014-Jul-19 02:30N 54°01' E 004°52'1110.5
2014-Jul-19 01:28N 54°10' E 005°02'5312.7
2014-Jul-18 21:16N 54°56' E 005°50'911.0
2014-Jul-18 20:24N 55°04' E 005°59'910.7
2014-Jul-18 19:33N 55°12' E 006°07'2310.8
2014-Jul-18 17:24N 55°31' E 006°29'0 0.1
2014-Jul-18 16:33N 55°31' E 006°29'1110.8
2014-Jul-18 15:33N 55°40' E 006°39'16410.1
2014-Jul-17 23:19N 57°41' E 010°02'810.1
2014-Jul-17 22:33N 57°44' E 010°16'10 9.8
2014-Jul-17 21:33N 57°48' E 010°33'7 7.2
2014-Jul-17 20:33N 57°44' E 010°44'5 5.4
2014-Jul-17 19:33N 57°41' E 010°36'0 0.0
2014-Jul-17 17:27N 57°41' E 010°36'5 5.7
2014-Jul-17 16:34N 57°38' E 010°44'1110.8
2014-Jul-17 15:33N 57°35' E 011°03'1111.0
2014-Jul-17 14:33N 57°30' E 011°22'1110.9
2014-Jul-17 13:34N 57°21' E 011°32'1511.0
2014-Jul-17 12:14N 57°07' E 011°43'710.8
2014-Jul-17 11:33N 57°01' E 011°49'1010.4
2014-Jul-17 10:33N 56°51' E 011°56'1110.7
2014-Jul-17 09:33N 56°42' E 012°05'1311.4
2014-Jul-17 08:26N 56°30' E 012°15'910.7
2014-Jul-17 07:33N 56°21' E 012°21'1111.0
2014-Jul-17 06:33N 56°11' E 012°29'1110.8
2014-Jul-17 05:33N 56°02' E 012°40'1010.4
2014-Jul-17 04:33N 55°52' E 012°44'1110.7
2014-Jul-17 03:33N 55°42' E 012°41'1010.2
2014-Jul-17 02:33N 55°31' E 012°43'1110.7
2014-Jul-17 01:33N 55°21' E 012°41'10 9.8
2014-Jul-17 00:33N 55°16' E 012°56'1111.0
2014-Jul-16 23:33N 55°15' E 013°15'1311.0
2014-Jul-16 22:20N 55°15' E 013°39'910.9
2014-Jul-16 21:33N 55°15' E 013°54'1510.3
2014-Jul-16 20:06N 55°16' E 014°20'610.8
2014-Jul-16 19:34N 55°20' E 014°27'1110.7
2014-Jul-16 18:32N 55°28' E 014°41'1110.3
2014-Jul-16 17:30N 55°33' E 014°57'2010.2
2014-Jul-16 15:33N 55°43' E 015°27'1010.3
2014-Jul-16 14:33N 55°49' E 015°43'1110.4
2014-Jul-16 13:30N 55°54' E 015°60'1010.5
2014-Jul-16 12:33N 55°59' E 016°15'7210.1
2014-Jul-16 05:28N 57°01' E 017°22'910.2
2014-Jul-16 04:33N 57°09' E 017°29'1010.1
2014-Jul-16 03:33N 57°19' E 017°36'  
Track history (hours):
 
Tides and Currents Weather Stations Pressure Air Temp Water Temp Dewpoint Dewpoint Depression Visibility Wind Speed Wind Dir Waves Ship Positions

Westgard

Last reported at 2014-Jul-24 01:33 UTC. Time now 2014-Jul-24 02:20 UTC.
Position N 51°15' E 004°24'.

Length 89 m; draft 4.1 m.

Type: Ship. MMSI: 246457000.

Date/timePositionNaut miles runAvg speedWind from/ knotsBaromVisibWave heightAir tempDewpointWater temp
2014-Jul-24 01:33N 51°15' E 004°24'0 0.0
2014-Jul-24 00:33N 51°15' E 004°24'0 0.0
2014-Jul-23 23:32N 51°15' E 004°24'0 0.0
2014-Jul-23 22:32N 51°15' E 004°24'0 0.0
2014-Jul-23 21:32N 51°15' E 004°24'0 0.0
2014-Jul-23 19:32N 51°15' E 004°24'0 0.0
2014-Jul-23 18:32N 51°15' E 004°24'0 0.0
2014-Jul-23 17:32N 51°15' E 004°24'0 0.0
2014-Jul-23 16:32N 51°15' E 004°24'0 0.0
2014-Jul-23 15:32N 51°15' E 004°24'0 0.0
2014-Jul-23 14:32N 51°15' E 004°24'0 0.0
2014-Jul-23 13:32N 51°15' E 004°24'0 0.0
2014-Jul-23 12:32N 51°15' E 004°24'0 0.0
2014-Jul-23 11:32N 51°15' E 004°24'0 0.0
2014-Jul-23 10:32N 51°15' E 004°24'0 0.0
2014-Jul-23 09:32N 51°15' E 004°24'0 0.0
2014-Jul-23 08:32N 51°15' E 004°24'0 0.0
2014-Jul-23 07:32N 51°15' E 004°24'0 0.0
2014-Jul-23 06:32N 51°15' E 004°24'0 0.0
2014-Jul-23 05:32N 51°15' E 004°24'0 0.0
2014-Jul-23 04:32N 51°15' E 004°24'0 0.0
2014-Jul-23 03:32N 51°15' E 004°24'0 0.0
2014-Jul-23 02:32N 51°15' E 004°24'0 0.0
2014-Jul-23 01:33N 51°15' E 004°24'5 4.8
2014-Jul-23 00:33N 51°19' E 004°19'2 2.5
2014-Jul-22 23:34N 51°21' E 004°17'1 0.7
2014-Jul-22 22:34N 51°21' E 004°16'9 9.0
2014-Jul-22 21:34N 51°23' E 004°02'10 9.6
2014-Jul-22 20:34N 51°21' E 003°47'1212.0
2014-Jul-22 19:34N 51°25' E 003°29'1312.6
2014-Jul-22 18:33N 51°24' E 003°09'1110.7
2014-Jul-22 17:34N 51°22' E 002°52'11 9.4
2014-Jul-22 16:20N 51°20' E 002°34'1 1.0
2014-Jul-22 15:33N 51°20' E 002°33'0 0.0
2014-Jul-22 14:33N 51°20' E 002°33'0 0.0
2014-Jul-22 13:33N 51°20' E 002°33'0 0.0
2014-Jul-22 12:33N 51°20' E 002°33'0 0.0
2014-Jul-22 11:32N 51°20' E 002°33'0 0.0
2014-Jul-22 10:32N 51°20' E 002°33'0 0.0
2014-Jul-22 09:32N 51°20' E 002°33'0 0.0
2014-Jul-22 08:32N 51°20' E 002°33'5 4.9
2014-Jul-22 07:32N 51°20' E 002°25'1111.1
2014-Jul-22 06:34N 51°15' E 002°11'1111.0
2014-Jul-22 05:33N 51°09' E 001°55'1010.3
2014-Jul-22 04:33N 51°02' E 001°43'4610.3
2014-Jul-22 00:07N 50°26' E 000°59'5511.3
2014-Jul-21 19:16N 49°44' E 000°04'811.8
2014-Jul-21 18:33N 49°36' W 000°00'10 9.7
2014-Jul-21 17:33N 49°27' E 000°03'8 7.4
2014-Jul-21 16:32N 49°26' E 000°14'0 0.0
2014-Jul-21 15:32N 49°26' E 000°14'0 0.0
2014-Jul-21 14:32N 49°26' E 000°14'0 0.0
2014-Jul-21 13:32N 49°26' E 000°14'0 0.0
2014-Jul-21 12:32N 49°26' E 000°14'0 0.0
2014-Jul-21 11:32N 49°26' E 000°14'0 0.0
2014-Jul-21 10:14N 49°26' E 000°14'0 0.0
2014-Jul-21 09:32N 49°26' E 000°14'0 0.0
2014-Jul-21 08:14N 49°26' E 000°14'0 0.0
2014-Jul-21 07:26N 49°26' E 000°14'0 0.0
2014-Jul-21 06:29N 49°26' E 000°14'0 0.0
2014-Jul-21 05:32N 49°26' E 000°14'0 0.0
2014-Jul-21 04:23N 49°26' E 000°14'0 0.0
2014-Jul-21 03:32N 49°26' E 000°14'0 0.0
2014-Jul-21 02:17N 49°26' E 000°14'0 0.0
2014-Jul-21 01:32N 49°26' E 000°14'0 0.0
2014-Jul-21 00:26N 49°26' E 000°14'0 0.0
2014-Jul-20 23:20N 49°26' E 000°14'0 0.0
2014-Jul-20 22:29N 49°26' E 000°14'0 0.0
2014-Jul-20 20:10N 49°26' E 000°14'0 0.0
2014-Jul-20 19:31N 49°26' E 000°14'0 0.0
2014-Jul-20 18:10N 49°26' E 000°14'0 0.0
2014-Jul-20 17:19N 49°26' E 000°14'0 0.0
2014-Jul-20 16:22N 49°26' E 000°14'0 0.0
2014-Jul-20 15:28N 49°26' E 000°14'0 0.0
2014-Jul-20 14:28N 49°26' E 000°14'0 0.0
2014-Jul-20 13:33N 49°26' E 000°14'6 6.4
2014-Jul-20 12:33N 49°26' E 000°05'8 8.1
2014-Jul-20 11:33N 49°30' W 000°07'63 9.0
2014-Jul-20 04:33N 50°31' E 000°20'10 9.5
2014-Jul-20 03:31N 50°33' E 000°35'9 9.3
2014-Jul-20 02:33N 50°39' E 000°46'3411.2
2014-Jul-19 23:33N 51°01' E 001°27'1211.6
2014-Jul-19 22:33N 51°09' E 001°39'1110.7
2014-Jul-19 21:34N 51°18' E 001°49'9 9.2
2014-Jul-19 20:33N 51°26' E 001°56'9 8.9
2014-Jul-19 19:33N 51°32' E 002°06'9 9.0
2014-Jul-19 18:33N 51°39' E 002°15'9 9.2
2014-Jul-19 17:33N 51°46' E 002°25'1210.3
2014-Jul-19 16:21N 51°56' E 002°38'1111.3
2014-Jul-19 15:25N 52°04' E 002°49'1011.9
2014-Jul-19 14:32N 52°12' E 003°00'1212.3
2014-Jul-19 13:33N 52°22' E 003°12'1212.0
2014-Jul-19 12:32N 52°31' E 003°24'4110.3
2014-Jul-19 08:31N 53°02' E 004°09'9 9.7
2014-Jul-19 07:33N 53°08' E 004°20'1110.5
2014-Jul-19 06:33N 53°18' E 004°28'1211.7
2014-Jul-19 05:33N 53°29' E 004°34'1111.5
2014-Jul-19 04:33N 53°40' E 004°40'1111.1
2014-Jul-19 03:33N 53°51' E 004°46'1110.8
2014-Jul-19 02:30N 54°01' E 004°52'1110.5
2014-Jul-19 01:28N 54°10' E 005°02'5312.7
2014-Jul-18 21:16N 54°56' E 005°50'911.0
2014-Jul-18 20:24N 55°04' E 005°59'910.7
2014-Jul-18 19:33N 55°12' E 006°07'2310.8
2014-Jul-18 17:24N 55°31' E 006°29'0 0.1
2014-Jul-18 16:33N 55°31' E 006°29'1110.8
2014-Jul-18 15:33N 55°40' E 006°39'16410.1
2014-Jul-17 23:19N 57°41' E 010°02'810.1
2014-Jul-17 22:33N 57°44' E 010°16'10 9.8
2014-Jul-17 21:33N 57°48' E 010°33'7 7.2
2014-Jul-17 20:33N 57°44' E 010°44'5 5.4
2014-Jul-17 19:33N 57°41' E 010°36'0 0.0
2014-Jul-17 17:27N 57°41' E 010°36'5 5.7
2014-Jul-17 16:34N 57°38' E 010°44'1110.8
2014-Jul-17 15:33N 57°35' E 011°03'1111.0
2014-Jul-17 14:33N 57°30' E 011°22'1110.9
2014-Jul-17 13:34N 57°21' E 011°32'1511.0
2014-Jul-17 12:14N 57°07' E 011°43'710.8
2014-Jul-17 11:33N 57°01' E 011°49'1010.4
2014-Jul-17 10:33N 56°51' E 011°56'1110.7
2014-Jul-17 09:33N 56°42' E 012°05'1311.4
2014-Jul-17 08:26N 56°30' E 012°15'910.7
2014-Jul-17 07:33N 56°21' E 012°21'1111.0
2014-Jul-17 06:33N 56°11' E 012°29'1110.8
2014-Jul-17 05:33N 56°02' E 012°40'1010.4
2014-Jul-17 04:33N 55°52' E 012°44'1110.7
2014-Jul-17 03:33N 55°42' E 012°41'1010.2
2014-Jul-17 02:33N 55°31' E 012°43'1110.7
2014-Jul-17 01:33N 55°21' E 012°41'10 9.8
2014-Jul-17 00:33N 55°16' E 012°56'1111.0
2014-Jul-16 23:33N 55°15' E 013°15'1311.0
2014-Jul-16 22:20N 55°15' E 013°39'910.9
2014-Jul-16 21:33N 55°15' E 013°54'1510.3
2014-Jul-16 20:06N 55°16' E 014°20'610.8
2014-Jul-16 19:34N 55°20' E 014°27'1110.7
2014-Jul-16 18:32N 55°28' E 014°41'1110.3
2014-Jul-16 17:30N 55°33' E 014°57'2010.2
2014-Jul-16 15:33N 55°43' E 015°27'1010.3
2014-Jul-16 14:33N 55°49' E 015°43'1110.4
2014-Jul-16 13:30N 55°54' E 015°60'1010.5
2014-Jul-16 12:33N 55°59' E 016°15'7210.1
2014-Jul-16 05:28N 57°01' E 017°22'910.2
2014-Jul-16 04:33N 57°09' E 017°29'1010.1
2014-Jul-16 03:33N 57°19' E 017°36'  

Dump ship's entire track history